Ana Sayfa
METAR-TAF:

METAR-TAF

Havaalanları :

Bükreş Băneasa, Romanya

Enlem: 44-30N, Boylam: 026-08E, yükseklik: 90 m

Güncel hava durumu gözlemi

Rapor saat 15:30 UTC de 17 dakika önce yapıldı.
Rüzgar kuzeydoğudan 12 kt
Sıcaklık 27°C
Nem 37%
Basınç 1018 hPa
Görüş mesafesi 10 km veya daha fazla
1500 m altında bulut yok ve kümülonimbus yok

METAR: LRBS 261530Z 05012KT CAVOK 27/11 Q1018 NOSIG

Saat: 18:47 (15:47 UTC)

Tahmin

Rapor saat 11:00 UTC de 4 saat ve 47 dakika önce yapıldı.
Ayın 26'si saat 12 UTC'den ayın 27'si saat 12 UTC'ye kadar geçerli Tahmin
Rüzgar kuzeydoğudan 14 kt
Görüş mesafesi 10 km veya daha fazla
1500 m altında bulut yok ve kümülonimbus yok
Geçici
ayın 26'si saat 12 UTC'den ayın 26'si saat 16 UTC'ye kadar
Rüzgar kuzeydoğudan 16 kt ve 26 kt'a kadar ani rüzgarlar
4500 ft yükseklikte parçalı bulutlu, Kümülonimbus.

TAF: LRBS 261100Z 2612/2712 05014KT CAVOK TEMPO 2612/2616 05016G26KT SCT045CB

4.000'den fazla havaalanı için hava durumu gözlemleri ve tahminleri (METAR ve TAF raporları).

Kullanılabilir istasyonlar harita üzerinde sarı ve kırmızı noktalarla gösterilir.

İstasyonun adını görmek için fareyi noktanın üzerinde gezdirin.

Sonrasında hava gözlem ve tahminlerini görmek için tıklayın.

Haritayı değiştirmek için: yaklaştırmak için siyah artı işaretli yeşil düğmeye ve uzaklaştırmak için de eksi işaretli düğmeye hızla tıklayın; bitişik haritalar için yeşil okları kullanın.


METAR-TAF: